createdAt,value
2018-05-09T00:00:36.998Z,11.70
2018-05-09T00:03:06.614Z,11.70
2018-05-09T00:05:37.968Z,11.60
2018-05-09T00:08:08.237Z,11.60
2018-05-09T00:10:38.943Z,11.80
2018-05-09T00:13:09.174Z,11.80
2018-05-09T00:15:39.019Z,11.80
2018-05-09T00:18:08.872Z,11.80
2018-05-09T00:20:39.634Z,11.80
2018-05-09T00:23:09.343Z,11.80
2018-05-09T00:25:39.996Z,11.80
2018-05-09T00:28:10.715Z,11.90
2018-05-09T00:30:40.583Z,11.80
2018-05-09T00:33:10.604Z,11.90
2018-05-09T00:35:40.944Z,11.90
2018-05-09T00:38:10.493Z,11.90
2018-05-09T00:40:40.105Z,11.90
2018-05-09T00:43:10.713Z,11.90
2018-05-09T00:45:42.332Z,11.80
2018-05-09T00:48:12.778Z,11.80
2018-05-09T00:50:42.668Z,11.80
2018-05-09T00:53:13.240Z,11.90
2018-05-09T00:55:44.284Z,11.80
2018-05-09T00:58:15.441Z,11.80
2018-05-09T01:00:47.820Z,11.80
2018-05-09T01:03:17.882Z,11.90
2018-05-09T01:05:47.385Z,11.90
2018-05-09T01:08:17.578Z,11.80
2018-05-09T01:10:47.165Z,11.70
2018-05-09T01:13:16.867Z,11.60
2018-05-09T01:15:46.573Z,11.60
2018-05-09T01:18:16.290Z,11.50
2018-05-09T01:20:45.994Z,11.50
2018-05-09T01:23:15.907Z,11.50
2018-05-09T01:25:46.394Z,11.40
2018-05-09T01:28:16.160Z,11.30
2018-05-09T01:30:47.389Z,11.40
2018-05-09T01:33:17.785Z,11.30
2018-05-09T01:35:47.321Z,11.40
2018-05-09T01:38:17.248Z,11.30
2018-05-09T01:40:46.973Z,11.40
2018-05-09T01:43:18.624Z,11.40
2018-05-09T01:45:48.172Z,11.40
2018-05-09T01:48:18.860Z,11.40
2018-05-09T01:50:48.633Z,11.40
2018-05-09T01:53:18.273Z,11.40
2018-05-09T01:55:47.808Z,11.50
2018-05-09T01:58:17.855Z,11.40
2018-05-09T02:00:48.280Z,11.40
2018-05-09T02:03:18.324Z,11.40
2018-05-09T02:05:48.051Z,11.40
2018-05-09T02:08:17.908Z,11.40
2018-05-09T02:10:47.697Z,11.40
2018-05-09T02:13:17.715Z,11.40
2018-05-09T02:15:47.525Z,11.50
2018-05-09T02:18:17.641Z,11.50
2018-05-09T02:20:47.172Z,11.60
2018-05-09T02:23:17.920Z,11.40
2018-05-09T02:25:48.452Z,11.40
2018-05-09T02:28:18.693Z,11.40
2018-05-09T02:30:48.221Z,11.40
2018-05-09T02:33:17.913Z,11.40
2018-05-09T02:35:47.589Z,11.30
2018-05-09T02:38:18.379Z,11.20
2018-05-09T02:40:48.006Z,11.10
2018-05-09T02:43:17.879Z,11.10
2018-05-09T02:45:47.738Z,11.10
2018-05-09T02:48:17.756Z,11.10
2018-05-09T02:50:48.283Z,11.10
2018-05-09T02:53:18.061Z,11.10
2018-05-09T02:55:47.921Z,11.10
2018-05-09T02:58:19.480Z,11.10
2018-05-09T03:00:49.017Z,11.10
2018-05-09T03:03:18.784Z,11.10
2018-05-09T03:05:48.347Z,11.10
2018-05-09T03:08:18.116Z,11.10
2018-05-09T03:10:47.809Z,11.00
2018-05-09T03:13:18.117Z,11.00
2018-05-09T03:15:47.678Z,11.00
2018-05-09T03:18:19.066Z,11.10
2018-05-09T03:20:49.147Z,11.00
2018-05-09T03:23:19.661Z,11.20
2018-05-09T03:25:50.073Z,11.10
2018-05-09T03:28:19.725Z,11.20
2018-05-09T03:30:49.297Z,11.30
2018-05-09T03:33:19.000Z,11.30
2018-05-09T03:35:48.534Z,11.30
2018-05-09T03:38:18.924Z,11.40
2018-05-09T03:40:48.650Z,11.30
2018-05-09T03:43:18.969Z,11.30
2018-05-09T03:45:48.682Z,11.30
2018-05-09T03:48:18.243Z,11.30
2018-05-09T03:50:47.819Z,11.30
2018-05-09T03:53:17.751Z,11.40
2018-05-09T03:55:47.306Z,11.50
2018-05-09T03:58:17.832Z,11.50
2018-05-09T04:00:47.316Z,11.40
2018-05-09T04:03:35.546Z,11.40
2018-05-09T04:06:24.434Z,11.30
2018-05-09T04:09:12.680Z,11.40
2018-05-09T04:11:42.163Z,11.40
2018-05-09T04:14:11.919Z,11.40
2018-05-09T04:16:41.745Z,11.40
2018-05-09T04:19:12.230Z,11.40
2018-05-09T04:21:42.119Z,11.30
2018-05-09T04:24:12.418Z,11.30
2018-05-09T04:26:42.250Z,11.30
2018-05-09T04:29:13.048Z,11.30
2018-05-09T04:31:42.786Z,11.30
2018-05-09T04:34:13.210Z,11.30
2018-05-09T04:36:44.432Z,11.20
2018-05-09T04:39:14.134Z,11.10
2018-05-09T04:41:43.836Z,11.20
2018-05-09T04:44:13.496Z,11.30
2018-05-09T04:46:43.173Z,11.30
2018-05-09T04:49:20.332Z,11.40
2018-05-09T04:51:49.836Z,11.50
2018-05-09T04:54:19.433Z,11.60
2018-05-09T04:56:49.101Z,11.60
2018-05-09T04:59:23.792Z,11.70
2018-05-09T05:01:53.675Z,11.60
2018-05-09T05:04:23.206Z,11.80
2018-05-09T05:06:52.912Z,11.80
2018-05-09T05:09:22.683Z,11.80
2018-05-09T05:11:53.157Z,11.90
2018-05-09T05:14:22.749Z,11.90
2018-05-09T05:16:52.500Z,12.00
2018-05-09T05:19:22.034Z,12.00
2018-05-09T05:21:51.649Z,12.00
2018-05-09T05:24:22.111Z,12.00
2018-05-09T05:26:51.830Z,11.90
2018-05-09T05:29:21.595Z,12.00
2018-05-09T05:31:51.379Z,12.10
2018-05-09T05:34:21.465Z,12.10
2018-05-09T05:36:51.277Z,12.20
2018-05-09T05:39:21.034Z,12.30
2018-05-09T05:41:52.124Z,12.40
2018-05-09T05:44:21.864Z,12.40
2018-05-09T05:46:51.432Z,12.50
2018-05-09T05:49:21.878Z,12.50
2018-05-09T05:51:51.420Z,12.40
2018-05-09T05:54:20.922Z,12.50
2018-05-09T05:56:50.471Z,12.60
2018-05-09T05:59:20.001Z,12.70
2018-05-09T06:01:49.654Z,12.70
2018-05-09T06:04:20.033Z,12.80
2018-05-09T06:06:49.707Z,12.70
2018-05-09T06:09:19.459Z,12.80
2018-05-09T06:11:50.490Z,12.90
2018-05-09T06:14:20.982Z,13.00
2018-05-09T06:16:50.532Z,13.10
2018-05-09T06:19:20.800Z,13.10
2018-05-09T06:21:50.613Z,13.00
2018-05-09T06:24:20.339Z,13.10
2018-05-09T06:26:50.173Z,13.20
2018-05-09T06:29:20.314Z,13.30
2018-05-09T06:31:49.948Z,13.30
2018-05-09T06:34:19.782Z,13.40
2018-05-09T06:36:49.416Z,13.30
2018-05-09T06:39:19.979Z,13.40
2018-05-09T06:41:49.471Z,13.30
2018-05-09T06:44:19.142Z,13.40
2018-05-09T06:46:48.946Z,13.50
2018-05-09T06:49:19.344Z,13.50
2018-05-09T06:51:49.175Z,13.70
2018-05-09T06:54:18.740Z,13.70
2018-05-09T06:56:48.394Z,13.70
2018-05-09T06:59:18.123Z,13.80
2018-05-09T07:01:49.659Z,13.90
2018-05-09T07:04:19.891Z,13.90
2018-05-09T07:06:49.653Z,14.10
2018-05-09T07:09:20.612Z,14.10
2018-05-09T07:11:50.081Z,14.20
2018-05-09T07:14:19.557Z,14.20
2018-05-09T07:16:49.224Z,14.20
2018-05-09T07:19:18.829Z,14.20
2018-05-09T07:21:48.536Z,14.30
2018-05-09T07:24:18.656Z,14.40
2018-05-09T07:26:48.912Z,14.50
2018-05-09T07:29:19.420Z,14.90
2018-05-09T07:31:50.503Z,15.20
2018-05-09T07:34:20.200Z,15.60
2018-05-09T07:36:50.820Z,15.50
2018-05-09T07:39:22.321Z,15.50
2018-05-09T07:41:53.445Z,15.60
2018-05-09T07:44:24.475Z,15.60
2018-05-09T07:46:54.205Z,15.60
2018-05-09T07:49:24.653Z,15.70
2018-05-09T07:51:54.205Z,15.70
2018-05-09T07:54:23.840Z,15.60
2018-05-09T07:57:08.028Z,15.60
2018-05-09T07:59:39.431Z,15.60
2018-05-09T08:02:10.717Z,15.70
2018-05-09T08:04:41.153Z,15.80
2018-05-09T08:07:12.819Z,15.80
2018-05-09T08:09:46.262Z,15.80
2018-05-09T08:12:21.294Z,16.20
2018-05-09T08:14:50.971Z,16.60
2018-05-09T08:17:20.862Z,17.00
2018-05-09T08:19:50.654Z,17.30
2018-05-09T08:22:21.050Z,17.80
2018-05-09T08:24:50.669Z,18.60
2018-05-09T08:27:20.191Z,19.00
2018-05-09T08:29:49.855Z,19.00
2018-05-09T08:32:20.565Z,18.90
2018-05-09T08:34:50.649Z,19.00
2018-05-09T08:37:21.367Z,19.30
2018-05-09T08:39:53.397Z,20.20
2018-05-09T08:42:24.974Z,21.30
2018-05-09T08:44:57.193Z,21.30
2018-05-09T08:47:26.861Z,22.00
2018-05-09T08:49:56.362Z,22.30
2018-05-09T08:52:26.079Z,22.60
2018-05-09T08:54:55.801Z,22.70
2018-05-09T08:57:25.375Z,22.80
2018-05-09T08:59:55.421Z,22.70
2018-05-09T09:02:24.920Z,22.80
2018-05-09T09:04:54.517Z,23.60
2018-05-09T09:07:24.032Z,24.50
2018-05-09T09:09:53.725Z,25.10
2018-05-09T09:12:23.274Z,25.50
2018-05-09T09:14:52.975Z,25.70
2018-05-09T09:17:22.597Z,25.80
2018-05-09T09:19:52.190Z,26.10
2018-05-09T09:22:21.943Z,26.40
2018-05-09T09:24:52.461Z,26.20
2018-05-09T09:27:36.683Z,26.30
2018-05-09T09:30:14.076Z,26.30
2018-05-09T09:32:43.777Z,26.50
2018-05-09T09:37:58.786Z,26.70
2018-05-09T09:40:28.577Z,27.00
2018-05-09T09:42:59.137Z,27.30
2018-05-09T09:45:29.706Z,26.90
2018-05-09T09:48:00.687Z,26.10
2018-05-09T09:50:31.492Z,25.70
2018-05-09T09:53:01.924Z,25.00
2018-05-09T09:55:31.566Z,25.00
2018-05-09T09:58:02.315Z,25.30
2018-05-09T10:00:32.845Z,26.60
2018-05-09T10:03:03.856Z,27.00
2018-05-09T10:05:35.144Z,27.40
2018-05-09T10:08:06.454Z,27.90
2018-05-09T10:10:37.100Z,27.80
2018-05-09T10:13:07.781Z,28.30
2018-05-09T10:15:38.055Z,28.30
2018-05-09T10:18:07.569Z,27.80
2018-05-09T10:20:37.143Z,28.30
2018-05-09T10:23:07.013Z,28.30
2018-05-09T10:25:36.584Z,27.50
2018-05-09T10:28:06.211Z,27.10
2018-05-09T10:30:35.808Z,26.40
2018-05-09T10:33:05.368Z,25.80
2018-05-09T10:35:35.733Z,25.30
2018-05-09T10:38:05.258Z,25.20
2018-05-09T10:40:34.957Z,25.60
2018-05-09T10:43:04.734Z,25.80
2018-05-09T10:45:34.231Z,25.50
2018-05-09T10:48:04.769Z,24.10
2018-05-09T10:50:35.212Z,24.20
2018-05-09T10:53:04.841Z,24.20
2018-05-09T10:55:34.372Z,24.70
2018-05-09T10:58:04.078Z,24.80
2018-05-09T11:00:34.145Z,25.50
2018-05-09T11:03:25.579Z,26.30
2018-05-09T11:09:37.704Z,27.60
2018-05-09T11:12:21.756Z,27.50
2018-05-09T11:14:51.256Z,27.40
2018-05-09T11:17:20.868Z,27.10
2018-05-09T11:19:50.846Z,26.80
2018-05-09T11:22:21.241Z,26.60
2018-05-09T11:24:51.045Z,26.50
2018-05-09T11:27:20.660Z,26.90
2018-05-09T11:29:50.285Z,27.10
2018-05-09T11:32:19.731Z,27.20
2018-05-09T11:34:49.186Z,27.30
2018-05-09T11:37:18.754Z,27.60
2018-05-09T11:39:48.184Z,28.30
2018-05-09T11:42:18.103Z,28.70
2018-05-09T11:44:50.035Z,28.50
2018-05-09T11:47:20.927Z,28.50
2018-05-09T11:49:50.409Z,29.10
2018-05-09T11:52:20.064Z,29.50
2018-05-09T11:54:50.563Z,29.30
2018-05-09T11:57:20.048Z,29.30
2018-05-09T11:59:49.770Z,29.10
2018-05-09T12:02:19.721Z,28.50
2018-05-09T12:04:49.801Z,28.40
2018-05-09T12:07:19.428Z,28.30
2018-05-09T12:09:52.216Z,28.50
2018-05-09T12:12:22.161Z,28.40
2018-05-09T12:14:52.701Z,28.30
2018-05-09T12:17:22.736Z,28.40
2018-05-09T12:19:52.407Z,28.90
2018-05-09T12:22:22.685Z,29.10
2018-05-09T12:24:52.149Z,29.10
2018-05-09T12:27:22.822Z,28.80
2018-05-09T12:29:52.349Z,28.70
2018-05-09T12:32:30.288Z,28.20
2018-05-09T12:35:01.737Z,28.20
2018-05-09T12:37:31.488Z,28.20
2018-05-09T12:40:01.163Z,28.20
2018-05-09T12:42:30.819Z,28.50
2018-05-09T12:45:00.388Z,28.80
2018-05-09T12:47:30.958Z,28.50
2018-05-09T12:50:00.618Z,28.40
2018-05-09T12:52:30.841Z,28.90
2018-05-09T12:55:01.214Z,28.60
2018-05-09T12:57:30.922Z,28.50
2018-05-09T13:00:00.513Z,28.10
2018-05-09T13:02:30.138Z,27.90
2018-05-09T13:04:59.705Z,27.90
2018-05-09T13:07:30.045Z,27.90
2018-05-09T13:09:59.670Z,27.90
2018-05-09T13:12:29.451Z,27.50
2018-05-09T13:15:00.027Z,27.20
2018-05-09T13:32:39.083Z,23.60
2018-05-09T13:35:09.241Z,23.50
2018-05-09T13:37:38.813Z,23.30
2018-05-09T13:40:08.366Z,22.90
2018-05-09T17:06:08.263Z,15.00
2018-05-09T17:08:38.864Z,15.10
2018-05-09T17:11:08.390Z,15.00
2018-05-09T17:13:38.505Z,15.10
2018-05-09T17:16:08.096Z,15.10
2018-05-09T17:18:38.876Z,15.10
2018-05-09T17:21:42.404Z,15.10
2018-05-09T17:24:13.280Z,15.10
2018-05-09T17:26:43.143Z,15.00
2018-05-09T17:29:12.906Z,15.00
2018-05-09T17:31:42.511Z,14.90
2018-05-09T17:34:12.188Z,14.90
2018-05-09T17:36:42.060Z,14.90
2018-05-09T17:39:11.849Z,14.90
2018-05-09T17:41:42.282Z,14.80
2018-05-09T17:44:11.991Z,14.80
2018-05-09T17:46:41.620Z,14.90
2018-05-09T17:49:12.128Z,14.90
2018-05-09T17:51:43.679Z,14.90
2018-05-09T17:54:13.804Z,14.90
2018-05-09T17:56:44.873Z,14.80
2018-05-09T17:59:15.712Z,14.80
2018-05-09T18:01:47.165Z,14.70
2018-05-09T18:04:16.923Z,14.70
2018-05-09T18:06:50.022Z,14.70
2018-05-09T18:09:21.423Z,14.60
2018-05-09T18:11:57.484Z,14.60
2018-05-09T18:14:27.263Z,14.50
2018-05-09T18:16:56.859Z,14.50
2018-05-09T18:19:26.441Z,14.40
2018-05-09T18:21:56.129Z,14.40
2018-05-09T18:24:27.371Z,14.60
2018-05-09T18:26:58.684Z,14.60
2018-05-09T18:29:28.393Z,14.60
2018-05-09T18:31:58.352Z,14.60
2018-05-09T18:34:29.056Z,14.50
2018-05-09T18:36:58.950Z,14.50
2018-05-09T18:39:29.427Z,14.50
2018-05-09T18:41:59.402Z,14.50
2018-05-09T18:44:30.139Z,14.40
2018-05-09T18:47:00.479Z,14.40
2018-05-09T18:49:30.965Z,14.40
2018-05-09T18:52:01.422Z,14.40
2018-05-09T18:54:33.192Z,14.40
2018-05-09T18:57:06.508Z,14.40
2018-05-09T18:59:36.406Z,14.40
2018-05-09T19:02:06.644Z,14.40
2018-05-09T19:04:39.213Z,14.30
2018-05-09T19:07:10.120Z,14.30
2018-05-09T19:09:40.243Z,14.20
2018-05-09T19:12:10.518Z,14.30
2018-05-09T19:14:42.983Z,14.20
2018-05-09T19:17:13.281Z,14.20
2018-05-09T19:19:44.235Z,14.20
2018-05-09T19:22:15.277Z,14.10
2018-05-09T19:24:46.263Z,14.00
2018-05-09T19:27:16.646Z,14.10
2018-05-09T19:29:47.685Z,14.10
2018-05-09T19:32:17.519Z,14.10
2018-05-09T19:34:49.655Z,14.10
2018-05-09T19:37:24.346Z,14.10
2018-05-09T19:39:59.368Z,14.00
2018-05-09T19:42:30.294Z,14.00
2018-05-09T19:45:00.812Z,13.90
2018-05-09T19:47:32.131Z,13.90
2018-05-09T19:50:03.158Z,13.90
2018-05-09T19:52:33.298Z,13.90
2018-05-09T19:55:03.139Z,13.90
2018-05-09T19:57:35.684Z,13.90
2018-05-09T20:00:06.988Z,13.90
2018-05-09T20:02:37.404Z,13.90
2018-05-09T20:05:07.961Z,13.90
2018-05-09T20:07:37.651Z,13.80
2018-05-09T20:10:08.693Z,13.80
2018-05-09T20:12:38.619Z,13.80
2018-05-09T20:15:08.226Z,13.80
2018-05-09T20:17:38.905Z,13.80
2018-05-09T20:20:15.308Z,13.80
2018-05-09T20:22:45.021Z,13.80
2018-05-09T20:25:17.145Z,13.80
2018-05-09T20:27:46.736Z,13.80
2018-05-09T20:30:24.084Z,13.80
2018-05-09T20:32:53.693Z,13.80
2018-05-09T20:35:24.000Z,13.80
2018-05-09T20:37:54.053Z,13.80
2018-05-09T20:42:55.065Z,13.80
2018-05-09T20:45:24.680Z,13.80
2018-05-09T20:47:54.669Z,13.70
2018-05-09T20:50:24.271Z,13.70
2018-05-09T20:52:53.863Z,13.60
2018-05-09T20:55:30.371Z,13.50
2018-05-09T20:58:00.356Z,13.50
2018-05-09T21:00:30.236Z,13.60
2018-05-09T21:02:59.888Z,13.60
2018-05-09T21:05:31.888Z,13.50
2018-05-09T21:08:03.499Z,13.50
2018-05-09T21:10:33.396Z,13.50
2018-05-09T21:13:05.070Z,13.40
2018-05-09T21:15:37.062Z,13.40
2018-05-09T21:18:13.850Z,13.40
2018-05-09T21:20:44.567Z,13.30
2018-05-09T21:23:22.088Z,13.50
2018-05-09T21:25:52.006Z,13.50
2018-05-09T21:28:21.787Z,13.60
2018-05-09T21:31:03.082Z,13.50
2018-05-09T21:33:32.779Z,13.50
2018-05-09T21:36:03.560Z,13.50
2018-05-09T21:38:33.394Z,13.60
2018-05-09T21:41:03.028Z,13.60
2018-05-09T21:43:33.550Z,13.50
2018-05-09T21:46:03.366Z,13.50
2018-05-09T21:48:33.408Z,13.50
2018-05-09T21:51:02.949Z,13.50
2018-05-09T21:53:32.542Z,13.50
2018-05-09T21:56:02.268Z,13.40
2018-05-09T21:58:32.587Z,13.40
2018-05-09T22:01:02.579Z,13.50
2018-05-09T22:03:33.150Z,13.50
2018-05-09T22:06:09.022Z,13.50
2018-05-09T22:08:40.104Z,13.50
2018-05-09T22:11:11.630Z,13.50
2018-05-09T22:13:42.708Z,13.50
2018-05-09T22:16:14.513Z,13.50
2018-05-09T22:18:47.027Z,13.40
2018-05-09T22:21:16.625Z,13.40
2018-05-09T22:23:46.320Z,13.40
2018-05-09T22:26:22.385Z,13.40
2018-05-09T22:28:52.640Z,13.30
2018-05-09T22:31:36.265Z,13.40
2018-05-09T22:34:05.917Z,13.40
2018-05-09T22:36:36.483Z,13.30
2018-05-09T22:39:07.039Z,13.30
2018-05-09T22:41:44.998Z,13.30
2018-05-09T22:44:16.299Z,13.30
2018-05-09T22:46:46.639Z,13.30
2018-05-09T22:49:20.213Z,13.30
2018-05-09T22:51:50.233Z,13.30
2018-05-09T22:54:19.980Z,13.30
2018-05-09T22:56:49.816Z,13.30
2018-05-09T22:59:19.574Z,13.30
2018-05-09T23:01:50.670Z,13.20
2018-05-09T23:04:20.527Z,13.20
2018-05-09T23:06:52.299Z,13.20
2018-05-09T23:09:23.110Z,13.20
2018-05-09T23:11:57.147Z,13.30
2018-05-09T23:14:32.133Z,13.30
2018-05-09T23:17:01.931Z,13.30
2018-05-09T23:19:32.207Z,13.30
2018-05-09T23:22:03.624Z,13.30
2018-05-09T23:24:35.541Z,13.30
2018-05-09T23:27:05.534Z,13.30
2018-05-09T23:29:35.379Z,13.30
2018-05-09T23:32:06.660Z,13.40
2018-05-09T23:34:37.953Z,13.50
2018-05-09T23:37:07.650Z,13.50
2018-05-09T23:39:37.239Z,13.50
2018-05-09T23:42:08.112Z,13.50
2018-05-09T23:44:38.078Z,13.50
2018-05-09T23:47:07.757Z,13.60
2018-05-09T23:49:37.443Z,13.60
2018-05-09T23:52:07.468Z,13.50
2018-05-09T23:54:37.060Z,13.50
2018-05-09T23:57:08.348Z,13.50
2018-05-09T23:59:39.244Z,13.50
